createdAt,value
2018-02-03T00:00:04.966Z,100046.87
2018-02-03T00:02:32.544Z,100053.53
2018-02-03T00:05:00.066Z,100052.89
2018-02-03T00:07:27.580Z,100046.41
2018-02-03T00:09:55.176Z,100037.20
2018-02-03T00:12:22.714Z,100040.73
2018-02-03T00:14:50.265Z,100033.69
2018-02-03T00:17:18.202Z,100029.94
2018-02-03T00:19:45.714Z,100025.80
2018-02-03T00:22:13.226Z,100024.12
2018-02-03T00:24:40.790Z,100027.91
2018-02-03T00:27:08.324Z,100024.58
2018-02-03T00:29:35.843Z,100021.04
2018-02-03T00:32:03.432Z,100020.00
2018-02-03T00:34:30.958Z,100025.16
2018-02-03T00:36:58.511Z,100026.91
2018-02-03T00:39:26.090Z,100026.66
2018-02-03T00:41:53.636Z,100030.30
2018-02-03T00:44:21.189Z,100028.89
2018-02-03T00:46:48.745Z,100034.03
2018-02-03T00:49:16.321Z,100027.78
2018-02-03T00:51:43.892Z,100025.14
2018-02-03T00:54:11.417Z,100027.13
2018-02-03T00:56:39.004Z,100022.98
2018-02-03T00:59:06.542Z,100031.94
2018-02-03T01:01:34.072Z,100032.61
2018-02-03T01:04:01.643Z,100030.64
2018-02-03T01:06:29.193Z,100035.66
2018-02-03T01:08:56.745Z,100044.75
2018-02-03T01:11:24.319Z,100048.34
2018-02-03T01:13:51.850Z,100045.27
2018-02-03T01:16:19.360Z,100049.12
2018-02-03T01:18:46.929Z,100038.81
2018-02-03T01:21:14.477Z,100041.72
2018-02-03T01:23:42.009Z,100042.72
2018-02-03T01:26:09.567Z,100047.16
2018-02-03T01:28:37.122Z,100039.84
2018-02-03T01:31:04.649Z,100032.97
2018-02-03T01:33:32.184Z,100032.08
2018-02-03T01:35:59.737Z,100030.30
2018-02-03T01:38:27.342Z,100032.47
2018-02-03T01:40:54.870Z,100037.88
2018-02-03T01:43:22.384Z,100039.89
2018-02-03T01:45:49.984Z,100037.36
2018-02-03T01:48:17.550Z,100033.05
2018-02-03T01:50:45.112Z,100028.09
2018-02-03T01:53:12.712Z,100032.21
2018-02-03T01:55:40.299Z,100029.52
2018-02-03T01:58:07.807Z,100029.25
2018-02-03T02:00:35.424Z,100028.74
2018-02-03T02:03:03.318Z,100036.66
2018-02-03T02:05:30.880Z,100035.08
2018-02-03T02:07:58.433Z,100028.81
2018-02-03T02:10:26.036Z,100026.65
2018-02-03T02:12:53.560Z,100037.28
2018-02-03T02:15:21.138Z,100037.23
2018-02-03T02:17:48.662Z,100033.51
2018-02-03T02:20:16.232Z,100032.66
2018-02-03T02:22:43.822Z,100031.92
2018-02-03T02:25:11.350Z,100034.30
2018-02-03T02:27:38.944Z,100032.89
2018-02-03T02:30:06.532Z,100038.80
2018-02-03T02:32:34.045Z,100031.41
2018-02-03T02:35:01.736Z,100021.67
2018-02-03T02:37:29.274Z,100023.83
2018-02-03T02:39:56.792Z,100021.16
2018-02-03T02:42:24.400Z,100011.78
2018-02-03T02:44:51.911Z,100024.97
2018-02-03T02:47:19.424Z,100018.31
2018-02-03T02:49:46.965Z,100012.27
2018-02-03T02:52:14.554Z,100012.37
2018-02-03T02:54:42.072Z,100017.11
2018-02-03T02:57:09.613Z,100018.95
2018-02-03T02:59:37.490Z,100016.27
2018-02-03T03:02:05.024Z,100009.31
2018-02-03T03:04:32.620Z,100012.17
2018-02-03T03:07:00.540Z,100012.03
2018-02-03T03:09:28.068Z,100010.91
2018-02-03T03:11:55.625Z,99997.42
2018-02-03T03:14:23.266Z,100004.38
2018-02-03T03:16:50.804Z,100002.44
2018-02-03T03:19:18.317Z,100002.31
2018-02-03T03:21:45.847Z,99996.16
2018-02-03T03:24:13.382Z,100000.98
2018-02-03T03:26:40.956Z,99997.61
2018-02-03T03:29:08.488Z,99998.64
2018-02-03T03:31:36.007Z,99989.77
2018-02-03T03:34:03.540Z,99999.10
2018-02-03T03:36:31.100Z,99996.59
2018-02-03T03:38:58.824Z,99989.67
2018-02-03T03:41:26.425Z,99994.45
2018-02-03T03:43:53.977Z,99993.13
2018-02-03T03:46:21.491Z,99992.63
2018-02-03T03:48:49.053Z,99988.56
2018-02-03T03:51:16.907Z,99991.88
2018-02-03T03:53:44.436Z,99989.86
2018-02-03T03:56:11.958Z,99980.45
2018-02-03T03:58:39.549Z,99978.27
2018-02-03T04:01:07.101Z,99975.39
2018-02-03T04:03:34.793Z,99984.76
2018-02-03T04:06:02.332Z,99984.58
2018-02-03T04:08:30.204Z,99986.22
2018-02-03T04:10:57.749Z,99980.75
2018-02-03T04:13:25.293Z,99981.84
2018-02-03T04:15:52.869Z,99979.55
2018-02-03T04:18:20.450Z,99977.25
2018-02-03T04:20:47.974Z,99973.38
2018-02-03T04:23:15.494Z,99969.70
2018-02-03T04:25:43.038Z,99975.20
2018-02-03T04:28:10.581Z,99971.77
2018-02-03T04:30:38.271Z,99981.06
2018-02-03T04:33:05.775Z,99976.80
2018-02-03T04:35:33.342Z,99971.73
2018-02-03T04:38:01.256Z,99972.44
2018-02-03T04:40:28.775Z,99969.20
2018-02-03T04:42:56.289Z,99973.44
2018-02-03T04:45:24.194Z,99972.41
2018-02-03T04:47:51.706Z,99972.14
2018-02-03T04:50:19.261Z,99965.82
2018-02-03T04:52:47.222Z,99965.36
2018-02-03T04:55:14.736Z,99965.74
2018-02-03T04:57:42.242Z,99965.05
2018-02-03T05:00:09.852Z,99962.11
2018-02-03T05:02:37.377Z,99954.72
2018-02-03T05:05:04.889Z,99959.11
2018-02-03T05:07:32.843Z,99955.69
2018-02-03T05:10:00.351Z,99950.92
2018-02-03T05:12:27.864Z,99947.87
2018-02-03T05:14:55.431Z,99946.63
2018-02-03T05:17:22.948Z,99953.77
2018-02-03T05:19:50.492Z,99947.75
2018-02-03T05:22:18.027Z,99945.92
2018-02-03T05:24:45.597Z,99949.83
2018-02-03T05:27:13.151Z,99951.61
2018-02-03T05:29:40.706Z,99949.45
2018-02-03T05:32:10.120Z,99945.08
2018-02-03T05:34:37.674Z,99933.66
2018-02-03T05:37:05.245Z,99929.03
2018-02-03T05:39:32.788Z,99930.84
2018-02-03T05:42:00.361Z,99927.34
2018-02-03T05:47:30.747Z,99911.91
2018-02-03T05:49:58.293Z,99918.13
2018-02-03T05:52:25.846Z,99914.98
2018-02-03T05:54:53.429Z,99911.20
2018-02-03T05:57:20.989Z,99914.17
2018-02-03T05:59:48.508Z,99916.42
2018-02-03T06:02:16.071Z,99917.66
2018-02-03T06:04:43.584Z,99915.99
2018-02-03T06:07:11.130Z,99915.30
2018-02-03T06:09:38.792Z,99913.52
2018-02-03T06:12:06.363Z,99914.02
2018-02-03T06:14:33.884Z,99913.95
2018-02-03T06:17:01.446Z,99908.84
2018-02-03T06:19:29.002Z,99908.84
2018-02-03T06:21:56.551Z,99905.03
2018-02-03T06:24:24.082Z,99907.33
2018-02-03T06:26:51.630Z,99908.09
2018-02-03T06:29:19.139Z,99916.36
2018-02-03T06:31:46.680Z,99913.25
2018-02-03T06:34:14.305Z,99913.23
2018-02-03T06:36:41.889Z,99918.31
2018-02-03T06:39:09.447Z,99922.08
2018-02-03T06:41:36.950Z,99920.96
2018-02-03T06:44:04.499Z,99918.56
2018-02-03T06:46:32.090Z,99913.81
2018-02-03T06:48:59.984Z,99907.37
2018-02-03T06:51:27.513Z,99912.46
2018-02-03T06:53:55.059Z,99917.39
2018-02-03T06:56:22.616Z,99920.78
2018-02-03T06:58:50.130Z,99908.45
2018-02-03T07:01:17.643Z,99912.26
2018-02-03T07:03:45.241Z,99904.59
2018-02-03T07:06:12.794Z,99903.52
2018-02-03T07:08:40.311Z,99911.53
2018-02-03T07:11:07.895Z,99903.57
2018-02-03T07:13:35.408Z,99900.95
2018-02-03T07:16:02.958Z,99900.63
2018-02-03T07:18:30.527Z,99899.84
2018-02-03T07:20:58.085Z,99900.09
2018-02-03T07:23:25.665Z,99887.71
2018-02-03T07:25:53.207Z,99886.81
2018-02-03T07:28:20.706Z,99890.74
2018-02-03T07:30:48.325Z,99892.23
2018-02-03T07:33:15.938Z,99900.81
2018-02-03T07:35:43.482Z,99893.95
2018-02-03T07:38:11.043Z,99896.64
2018-02-03T07:40:38.566Z,99896.63
2018-02-03T07:43:06.136Z,99893.84
2018-02-03T07:45:33.678Z,99892.59
2018-02-03T07:48:01.187Z,99900.66
2018-02-03T07:50:29.137Z,99899.14
2018-02-03T07:52:56.669Z,99898.50
2018-02-03T07:55:24.217Z,99898.98
2018-02-03T07:57:51.760Z,99898.11
2018-02-03T08:00:19.353Z,99900.09
2018-02-03T08:02:46.891Z,99900.67
2018-02-03T08:05:14.399Z,99896.53
2018-02-03T08:07:42.007Z,99892.73
2018-02-03T08:10:09.535Z,99893.31
2018-02-03T08:12:37.058Z,99899.23
2018-02-03T08:15:04.679Z,99892.70
2018-02-03T08:17:32.259Z,99892.02
2018-02-03T08:19:59.808Z,99886.77
2018-02-03T08:22:27.401Z,99882.97
2018-02-03T08:24:55.136Z,99885.36
2018-02-03T08:27:22.669Z,99879.09
2018-02-03T08:29:50.371Z,99877.69
2018-02-03T08:32:17.998Z,99877.11
2018-02-03T08:34:45.709Z,99873.64
2018-02-03T08:37:13.300Z,99872.42
2018-02-03T08:39:40.848Z,99864.87
2018-02-03T08:42:08.566Z,99869.62
2018-02-03T08:44:36.114Z,99859.58
2018-02-03T08:47:04.000Z,99855.97
2018-02-03T08:49:31.550Z,99860.97
2018-02-03T08:51:59.221Z,99857.96
2018-02-03T08:54:26.754Z,99856.51
2018-02-03T08:56:54.274Z,99853.66
2018-02-03T08:59:22.186Z,99854.84
2018-02-03T09:01:49.710Z,99858.61
2018-02-03T09:04:17.258Z,99857.17
2018-02-03T09:06:44.870Z,99852.70
2018-02-03T09:09:12.466Z,99857.30
2018-02-03T09:11:51.918Z,99850.89
2018-02-03T09:14:19.451Z,99852.80
2018-02-03T09:16:47.061Z,99858.24
2018-02-03T09:19:14.978Z,99844.85
2018-02-03T09:21:42.510Z,99847.10
2018-02-03T09:24:10.044Z,99845.28
2018-02-03T09:26:37.626Z,99842.43
2018-02-03T09:29:05.159Z,99843.01
2018-02-03T09:31:32.672Z,99847.91
2018-02-03T09:34:00.246Z,99839.92
2018-02-03T09:36:27.798Z,99831.95
2018-02-03T09:38:55.350Z,99835.25
2018-02-03T09:41:22.900Z,99835.80
2018-02-03T09:43:50.450Z,99838.30
2018-02-03T09:46:18.048Z,99842.66
2018-02-03T09:48:45.562Z,99845.48
2018-02-03T09:51:13.161Z,99841.95
2018-02-03T09:53:40.776Z,99839.89
2018-02-03T09:56:08.291Z,99840.55
2018-02-03T09:58:35.849Z,99841.00
2018-02-03T10:01:03.445Z,99835.13
2018-02-03T10:03:31.026Z,99836.56
2018-02-03T10:05:58.540Z,99832.38
2018-02-03T10:08:26.087Z,99832.91
2018-02-03T10:10:53.631Z,99831.20
2018-02-03T10:13:21.192Z,99831.84
2018-02-03T10:15:48.737Z,99826.33
2018-02-03T10:18:16.355Z,99824.64
2018-02-03T10:20:43.954Z,99832.34
2018-02-03T10:23:11.467Z,99839.13
2018-02-03T10:25:39.039Z,99839.94
2018-02-03T10:28:06.899Z,99839.97
2018-02-03T10:30:34.459Z,99848.89
2018-02-03T10:33:01.982Z,99844.41
2018-02-03T10:35:29.705Z,99846.77
2018-02-03T10:37:57.256Z,99848.36
2018-02-03T10:40:24.786Z,99844.70
2018-02-03T10:42:52.508Z,99844.06
2018-02-03T10:45:20.052Z,99842.86
2018-02-03T10:47:47.587Z,99839.47
2018-02-03T10:50:15.242Z,99835.41
2018-02-03T10:52:42.756Z,99836.69
2018-02-03T10:55:10.458Z,99833.25
2018-02-03T10:57:38.199Z,99834.39
2018-02-03T11:00:05.750Z,99838.47
2018-02-03T11:02:33.311Z,99832.55
2018-02-03T11:05:00.846Z,99837.66
2018-02-03T11:07:28.379Z,99834.80
2018-02-03T11:09:55.926Z,99832.60
2018-02-03T11:12:23.491Z,99830.97
2018-02-03T11:14:51.023Z,99828.17
2018-02-03T11:17:18.567Z,99829.98
2018-02-03T11:19:46.250Z,99828.33
2018-02-03T11:22:13.797Z,99825.64
2018-02-03T11:24:41.316Z,99833.14
2018-02-03T11:27:09.337Z,99823.07
2018-02-03T11:29:36.860Z,99822.16
2018-02-03T11:32:04.419Z,99823.17
2018-02-03T11:34:31.947Z,99817.81
2018-02-03T11:36:59.513Z,99823.81
2018-02-03T11:39:27.160Z,99815.77
2018-02-03T11:41:54.795Z,99811.53
2018-02-03T11:44:22.376Z,99807.81
2018-02-03T11:46:49.907Z,99807.72
2018-02-03T11:49:17.514Z,99806.33
2018-02-03T11:51:45.080Z,99814.44
2018-02-03T11:54:12.587Z,99813.02
2018-02-03T11:56:40.143Z,99807.82
2018-02-03T11:59:07.653Z,99811.60
2018-02-03T12:01:35.202Z,99808.16
2018-02-03T12:04:03.857Z,99809.80
2018-02-03T12:06:31.437Z,99807.14
2018-02-03T12:08:59.020Z,99803.55
2018-02-03T12:11:26.583Z,99806.88
2018-02-03T12:13:54.119Z,99799.97
2018-02-03T12:16:21.687Z,99807.80
2018-02-03T12:18:49.251Z,99801.34
2018-02-03T12:21:16.844Z,99796.23
2018-02-03T12:23:44.387Z,99789.64
2018-02-03T12:26:11.968Z,99787.89
2018-02-03T12:28:39.488Z,99783.27
2018-02-03T12:31:07.131Z,99781.52
2018-02-03T12:33:34.760Z,99780.89
2018-02-03T12:36:02.330Z,99786.31
2018-02-03T12:38:29.999Z,99784.16
2018-02-03T12:40:57.596Z,99786.62
2018-02-03T12:43:25.590Z,99786.38
2018-02-03T12:45:53.099Z,99779.52
2018-02-03T12:48:20.598Z,99780.12
2018-02-03T12:50:48.183Z,99777.62
2018-02-03T12:53:15.699Z,99771.56
2018-02-03T12:55:43.238Z,99775.80
2018-02-03T12:58:10.848Z,99772.62
2018-02-03T13:00:38.355Z,99774.42
2018-02-03T13:03:05.861Z,99786.09
2018-02-03T13:05:33.495Z,99784.50
2018-02-03T13:08:01.094Z,99782.37
2018-02-03T13:10:28.617Z,99782.09
2018-02-03T13:12:56.203Z,99780.91
2018-02-03T13:15:23.803Z,99782.82
2018-02-03T13:17:51.307Z,99778.45
2018-02-03T13:20:18.877Z,99771.20
2018-02-03T13:22:46.397Z,99772.65
2018-02-03T13:25:13.948Z,99776.81
2018-02-03T13:27:41.488Z,99768.73
2018-02-03T13:30:09.043Z,99772.23
2018-02-03T13:32:36.616Z,99774.21
2018-02-03T13:35:04.164Z,99778.45
2018-02-03T13:37:31.728Z,99768.88
2018-02-03T13:39:59.272Z,99765.92
2018-02-03T13:42:27.234Z,99765.28
2018-02-03T13:44:54.770Z,99763.94
2018-02-03T13:47:22.450Z,99761.67
2018-02-03T13:49:50.371Z,99766.64
2018-02-03T13:52:17.922Z,99771.94
2018-02-03T13:54:45.478Z,99766.22
2018-02-03T13:57:13.082Z,99770.81
2018-02-03T13:59:40.626Z,99765.25
2018-02-03T14:02:08.194Z,99770.33
2018-02-03T14:04:35.775Z,99773.17
2018-02-03T14:07:03.295Z,99777.72
2018-02-03T14:09:30.879Z,99775.41
2018-02-03T14:11:58.402Z,99770.97
2018-02-03T14:14:25.934Z,99781.81
2018-02-03T14:16:53.466Z,99782.77
2018-02-03T14:19:20.991Z,99785.19
2018-02-03T14:21:48.495Z,99784.00
2018-02-03T14:24:21.692Z,99787.42
2018-02-03T14:26:49.238Z,99788.55
2018-02-03T14:29:16.767Z,99791.39
2018-02-03T14:31:44.313Z,99798.47
2018-02-03T14:34:11.851Z,99799.03
2018-02-03T14:36:39.361Z,99797.25
2018-02-03T14:39:06.924Z,99799.05
2018-02-03T14:41:34.480Z,99804.30
2018-02-03T14:44:02.055Z,99810.00
2018-02-03T14:46:29.630Z,99803.23
2018-02-03T14:48:57.311Z,99812.02
2018-02-03T14:51:24.930Z,99814.97
2018-02-03T14:53:52.445Z,99814.08
2018-02-03T14:56:19.998Z,99820.39
2018-02-03T14:58:47.597Z,99816.53
2018-02-03T15:01:15.264Z,99824.61
2018-02-03T15:03:42.784Z,99825.53
2018-02-03T15:06:10.377Z,99828.59
2018-02-03T15:08:37.901Z,99834.09
2018-02-03T15:11:05.427Z,99834.81
2018-02-03T15:13:32.958Z,99838.92
2018-02-03T15:16:00.496Z,99835.98
2018-02-03T15:18:28.064Z,99845.62
2018-02-03T15:20:55.568Z,99841.97
2018-02-03T15:23:23.116Z,99848.98
2018-02-03T15:25:50.656Z,99846.86
2018-02-03T15:28:18.174Z,99842.73
2018-02-03T15:30:45.770Z,99847.02
2018-02-03T15:33:13.325Z,99848.59
2018-02-03T15:35:40.861Z,99857.30
2018-02-03T15:38:08.463Z,99848.42
2018-02-03T15:40:35.995Z,99856.34
2018-02-03T15:43:03.523Z,99859.03
2018-02-03T15:45:31.112Z,99859.34
2018-02-03T15:47:58.676Z,99863.52
2018-02-03T15:50:26.242Z,99865.88
2018-02-03T15:52:53.804Z,99870.79
2018-02-03T15:55:21.318Z,99869.14
2018-02-03T15:57:49.184Z,99864.56
2018-02-03T16:00:16.722Z,99870.13
2018-02-03T16:02:44.264Z,99863.73
2018-02-03T16:05:11.843Z,99869.77
2018-02-03T16:07:39.447Z,99869.06
2018-02-03T16:10:06.974Z,99868.85
2018-02-03T16:12:34.577Z,99875.08
2018-02-03T16:15:02.131Z,99880.64
2018-02-03T16:17:29.670Z,99882.87
2018-02-03T16:19:57.214Z,99886.01
2018-02-03T16:22:25.152Z,99885.83
2018-02-03T16:24:52.696Z,99892.91
2018-02-03T16:27:20.247Z,99894.00
2018-02-03T16:29:47.774Z,99902.95
2018-02-03T16:32:15.374Z,99904.31
2018-02-03T16:34:42.918Z,99909.38
2018-02-03T16:37:10.432Z,99920.75
2018-02-03T16:39:38.339Z,99918.14
2018-02-03T16:42:05.867Z,99923.55
2018-02-03T16:44:33.400Z,99917.69
2018-02-03T16:47:01.246Z,99929.38
2018-02-03T16:49:28.776Z,99929.11
2018-02-03T16:51:56.298Z,99930.20
2018-02-03T16:54:23.879Z,99941.13
2018-02-03T16:56:51.416Z,99942.55
2018-02-03T16:59:18.958Z,99941.19
2018-02-03T17:01:46.538Z,99939.34
2018-02-03T17:04:14.090Z,99946.06
2018-02-03T17:06:41.756Z,99942.23
2018-02-03T17:09:09.279Z,99953.76
2018-02-03T17:11:36.831Z,99957.67
2018-02-03T17:14:04.424Z,99962.46
2018-02-03T17:16:31.935Z,99966.61
2018-02-03T17:18:59.447Z,99965.64
2018-02-03T17:21:27.302Z,99967.34
2018-02-03T17:23:54.875Z,99963.95
2018-02-03T17:26:22.404Z,99975.42
2018-02-03T17:28:49.955Z,99977.70
2018-02-03T17:31:17.459Z,99981.75
2018-02-03T17:33:44.999Z,99990.93
2018-02-03T17:36:12.608Z,99992.97
2018-02-03T17:38:46.554Z,99993.73
2018-02-03T17:41:14.110Z,99998.44
2018-02-03T17:43:41.623Z,100002.81
2018-02-03T17:46:15.321Z,99997.55
2018-02-03T17:48:42.907Z,99997.94
2018-02-03T17:51:10.453Z,100004.39
2018-02-03T17:53:38.029Z,100012.71
2018-02-03T17:56:11.286Z,100018.15
2018-02-03T17:58:38.893Z,100018.05
2018-02-03T18:01:06.457Z,100018.05
2018-02-03T18:03:34.074Z,100027.19
2018-02-03T18:06:01.599Z,100029.77
2018-02-03T18:08:29.273Z,100038.31
2018-02-03T18:10:56.814Z,100031.24
2018-02-03T18:13:24.390Z,100035.20
2018-02-03T18:15:51.919Z,100035.79
2018-02-03T18:18:19.518Z,100048.75
2018-02-03T18:20:47.040Z,100044.55
2018-02-03T18:23:14.552Z,100050.47
2018-02-03T18:25:42.143Z,100052.58
2018-02-03T18:28:09.679Z,100054.16
2018-02-03T18:30:37.203Z,100054.33
2018-02-03T18:33:04.884Z,100063.02
2018-02-03T18:35:32.404Z,100069.12
2018-02-03T18:37:59.939Z,100074.81
2018-02-03T18:40:27.447Z,100079.41
2018-02-03T18:42:55.020Z,100083.46
2018-02-03T18:45:34.530Z,100086.39
2018-02-03T18:48:02.086Z,100086.51
2018-02-03T18:50:29.617Z,100089.32
2018-02-03T18:52:57.167Z,100087.25
2018-02-03T18:55:24.707Z,100087.84
2018-02-03T18:57:52.296Z,100088.79
2018-02-03T19:00:19.958Z,100088.84
2018-02-03T19:02:47.649Z,100094.56
2018-02-03T19:05:15.246Z,100092.77
2018-02-03T19:07:42.777Z,100095.88
2018-02-03T19:10:10.360Z,100098.06
2018-02-03T19:12:37.942Z,100105.62
2018-02-03T19:15:05.538Z,100111.23
2018-02-03T19:17:33.095Z,100115.28
2018-02-03T19:20:00.636Z,100117.45
2018-02-03T19:22:28.193Z,100120.66
2018-02-03T19:24:55.778Z,100129.90
2018-02-03T19:27:23.349Z,100127.20
2018-02-03T19:29:50.878Z,100135.09
2018-02-03T19:32:18.768Z,100132.75
2018-02-03T19:34:46.402Z,100136.72
2018-02-03T19:37:13.930Z,100131.91
2018-02-03T19:39:41.886Z,100138.85
2018-02-03T19:42:09.537Z,100142.05
2018-02-03T19:44:37.059Z,100149.59
2018-02-03T19:47:04.629Z,100151.17
2018-02-03T19:49:32.159Z,100160.12
2018-02-03T19:51:59.822Z,100151.69
2018-02-03T19:54:27.342Z,100165.06
2018-02-03T19:56:54.927Z,100155.52
2018-02-03T19:59:22.530Z,100162.67
2018-02-03T20:01:50.039Z,100164.03
2018-02-03T20:04:17.605Z,100169.44
2018-02-03T20:06:45.139Z,100178.47
2018-02-03T20:09:12.731Z,100182.36
2018-02-03T20:11:40.404Z,100185.78
2018-02-03T20:14:07.970Z,100185.41
2018-02-03T20:16:35.639Z,100183.67
2018-02-03T20:19:03.176Z,100187.97
2018-02-03T20:21:31.058Z,100200.18
2018-02-03T20:23:58.671Z,100204.38
2018-02-03T20:26:26.174Z,100204.94
2018-02-03T20:28:53.732Z,100202.69
2018-02-03T20:31:21.304Z,100204.90
2018-02-03T20:33:48.866Z,100215.76
2018-02-03T20:36:16.436Z,100216.56
2018-02-03T20:38:44.363Z,100217.72
2018-02-03T20:41:11.996Z,100225.48
2018-02-03T20:43:39.538Z,100226.84
2018-02-03T20:46:07.099Z,100233.97
2018-02-03T20:48:34.677Z,100232.91
2018-02-03T20:51:02.271Z,100235.89
2018-02-03T20:53:29.831Z,100234.88
2018-02-03T20:55:57.344Z,100237.76
2018-02-03T20:58:24.945Z,100236.36
2018-02-03T21:00:52.467Z,100242.23
2018-02-03T21:03:20.006Z,100248.42
2018-02-03T21:05:47.584Z,100250.08
2018-02-03T21:08:15.108Z,100261.58
2018-02-03T21:10:42.681Z,100267.63
2018-02-03T21:13:10.293Z,100270.63
2018-02-03T21:15:37.930Z,100273.98
2018-02-03T21:18:05.546Z,100290.17
2018-02-03T21:20:33.516Z,100301.90
2018-02-03T21:23:01.028Z,100302.09
2018-02-03T21:25:28.585Z,100307.19
2018-02-03T21:27:56.414Z,100316.42
2018-02-03T21:30:23.970Z,100313.03
2018-02-03T21:32:51.482Z,100322.89
2018-02-03T21:35:19.020Z,100321.40
2018-02-03T21:37:46.682Z,100327.02
2018-02-03T21:40:14.345Z,100334.31
2018-02-03T21:42:41.887Z,100336.30
2018-02-03T21:45:09.455Z,100341.11
2018-02-03T21:47:37.090Z,100352.09
2018-02-03T21:50:04.603Z,100349.91
2018-02-03T21:52:32.196Z,100347.27
2018-02-03T21:54:59.766Z,100358.33
2018-02-03T21:57:27.361Z,100359.91
2018-02-03T21:59:55.301Z,100359.59
2018-02-03T22:02:22.849Z,100357.61
2018-02-03T22:04:50.410Z,100359.91
2018-02-03T22:07:17.960Z,100363.13
2018-02-03T22:09:45.494Z,100368.12
2018-02-03T22:12:13.056Z,100383.91
2018-02-03T22:14:40.680Z,100376.23
2018-02-03T22:17:08.256Z,100386.37
2018-02-03T22:19:35.799Z,100390.83
2018-02-03T22:22:03.391Z,100394.69
2018-02-03T22:24:30.908Z,100393.84
2018-02-03T22:26:58.451Z,100400.66
2018-02-03T22:29:26.019Z,100404.58
2018-02-03T22:31:53.612Z,100409.55
2018-02-03T22:34:21.125Z,100411.92
2018-02-03T22:36:48.715Z,100410.86
2018-02-03T22:39:16.286Z,100412.18
2018-02-03T22:41:43.843Z,100422.59
2018-02-03T22:44:11.424Z,100428.70
2018-02-03T22:46:38.965Z,100435.33
2018-02-03T22:49:06.861Z,100435.85
2018-02-03T22:51:34.426Z,100439.56
2018-02-03T22:54:01.948Z,100433.80
2018-02-03T22:56:29.548Z,100441.31
2018-02-03T22:58:57.087Z,100439.84
2018-02-03T23:01:24.696Z,100459.09
2018-02-03T23:03:52.269Z,100447.88
2018-02-03T23:06:19.808Z,100448.34
2018-02-03T23:08:47.660Z,100455.27
2018-02-03T23:11:15.214Z,100463.06
2018-02-03T23:13:42.734Z,100464.05
2018-02-03T23:16:10.657Z,100471.27
2018-02-03T23:18:38.321Z,100471.20
2018-02-03T23:21:05.984Z,100473.21
2018-02-03T23:23:33.546Z,100483.98
2018-02-03T23:26:01.066Z,100475.83
2018-02-03T23:28:28.635Z,100483.51
2018-02-03T23:30:56.280Z,100475.70
2018-02-03T23:33:23.809Z,100486.28
2018-02-03T23:35:51.376Z,100484.08
2018-02-03T23:38:18.948Z,100493.87
2018-02-03T23:40:46.592Z,100497.09
2018-02-03T23:43:14.135Z,100490.97
2018-02-03T23:45:41.725Z,100505.78
2018-02-03T23:48:09.362Z,100501.39
2018-02-03T23:50:36.912Z,100507.03
2018-02-03T23:53:04.503Z,100506.32
2018-02-03T23:55:32.033Z,100515.39
2018-02-03T23:57:59.599Z,100516.48
